createdAt,value
2019-05-02T00:01:51.121Z,99.90
2019-05-02T00:04:21.042Z,99.90
2019-05-02T00:07:04.929Z,99.90
2019-05-02T00:09:34.164Z,99.90
2019-05-02T00:12:07.074Z,99.90
2019-05-02T00:14:35.808Z,99.90
2019-05-02T00:17:04.666Z,99.90
2019-05-02T00:19:33.160Z,99.90
2019-05-02T00:22:01.797Z,99.90
2019-05-02T00:24:33.885Z,99.90
2019-05-02T00:27:01.317Z,99.90
2019-05-02T00:29:30.925Z,99.90
2019-05-02T00:31:59.364Z,99.90
2019-05-02T00:34:28.287Z,99.90
2019-05-02T00:36:56.882Z,99.90
2019-05-02T00:39:25.325Z,99.90
2019-05-02T00:41:53.873Z,99.90
2019-05-02T00:44:22.297Z,99.90
2019-05-02T00:46:50.924Z,99.90
2019-05-02T00:49:19.335Z,99.90
2019-05-02T00:51:47.836Z,99.90
2019-05-02T00:54:19.297Z,99.90
2019-05-02T00:56:46.681Z,99.90
2019-05-02T00:59:15.108Z,99.90
2019-05-02T01:01:50.609Z,99.90
2019-05-02T01:04:29.105Z,99.90
2019-05-02T01:06:57.765Z,99.90
2019-05-02T01:09:26.293Z,99.90
2019-05-02T01:11:54.801Z,99.90
2019-05-02T01:14:27.029Z,99.90
2019-05-02T01:16:54.417Z,99.90
2019-05-02T01:19:24.038Z,99.90
2019-05-02T01:21:52.554Z,99.90
2019-05-02T01:24:20.994Z,99.90
2019-05-02T01:27:11.270Z,99.90
2019-05-02T01:29:51.162Z,99.90
2019-05-02T01:32:30.010Z,99.90
2019-05-02T01:35:18.583Z,99.90
2019-05-02T01:38:14.997Z,99.90
2019-05-02T01:40:48.095Z,99.90
2019-05-02T01:43:24.219Z,99.90
2019-05-02T01:45:52.599Z,99.90
2019-05-02T01:48:21.188Z,99.90
2019-05-02T01:50:49.629Z,99.90
2019-05-02T01:53:18.230Z,99.90
2019-05-02T01:55:46.744Z,99.90
2019-05-02T01:58:20.709Z,99.90
2019-05-02T02:00:46.013Z,99.90
2019-05-02T02:03:14.879Z,99.90
2019-05-02T02:05:43.418Z,99.90
2019-05-02T02:08:11.913Z,99.90
2019-05-02T02:10:40.348Z,99.90
2019-05-02T02:13:08.838Z,99.90
2019-05-02T02:15:37.268Z,99.90
2019-05-02T02:18:05.789Z,99.90
2019-05-02T02:20:49.096Z,99.90
2019-05-02T02:23:44.982Z,99.90
2019-05-02T02:26:13.746Z,99.90
2019-05-02T02:28:42.268Z,99.90
2019-05-02T02:31:11.340Z,99.90
2019-05-02T02:33:45.184Z,99.90
2019-05-02T02:36:10.087Z,99.90
2019-05-02T02:38:38.586Z,99.90
2019-05-02T02:41:13.147Z,99.90
2019-05-02T02:43:37.315Z,99.90
2019-05-02T02:46:37.578Z,99.90
2019-05-02T02:49:01.151Z,99.90
2019-05-02T02:55:40.744Z,99.90
2019-05-02T02:58:09.406Z,99.90
2019-05-02T03:00:41.400Z,99.90
2019-05-02T03:03:08.519Z,99.90
2019-05-02T03:05:37.392Z,99.90
2019-05-02T03:08:07.258Z,99.90
2019-05-02T03:10:39.917Z,99.90
2019-05-02T03:13:25.648Z,99.90
2019-05-02T03:16:00.439Z,99.90
2019-05-02T03:18:27.033Z,99.90
2019-05-02T03:20:55.974Z,99.90
2019-05-02T03:23:24.956Z,99.90
2019-05-02T03:25:53.488Z,99.90
2019-05-02T03:28:21.976Z,99.90
2019-05-02T03:30:50.942Z,99.90
2019-05-02T03:33:19.402Z,99.90
2019-05-02T03:35:49.335Z,99.90
2019-05-02T03:38:18.029Z,99.90
2019-05-02T03:40:46.955Z,99.90
2019-05-02T03:43:19.147Z,99.90
2019-05-02T03:45:46.718Z,99.90
2019-05-02T03:48:18.481Z,99.90
2019-05-02T03:50:45.847Z,99.90
2019-05-02T03:53:17.533Z,99.90
2019-05-02T03:55:44.925Z,99.90
2019-05-02T03:58:16.226Z,99.90
2019-05-02T04:00:43.810Z,99.90
2019-05-02T04:03:13.242Z,99.90
2019-05-02T04:05:42.307Z,99.90
2019-05-02T04:08:19.584Z,99.90
2019-05-02T04:11:20.472Z,99.90
2019-05-02T04:13:50.753Z,99.90
2019-05-02T04:16:19.351Z,99.90
2019-05-02T04:18:54.711Z,99.90
2019-05-02T04:21:24.210Z,99.90
2019-05-02T04:23:49.846Z,99.90
2019-05-02T04:26:18.329Z,99.90
2019-05-02T04:28:51.829Z,99.90
2019-05-02T04:31:17.951Z,99.90
2019-05-02T04:33:46.367Z,99.90
2019-05-02T04:36:17.916Z,99.90
2019-05-02T04:38:48.816Z,99.90
2019-05-02T04:41:21.449Z,99.90
2019-05-02T04:43:54.622Z,99.90
2019-05-02T04:46:21.952Z,99.90
2019-05-02T04:48:49.814Z,99.90
2019-05-02T04:51:20.368Z,99.90
2019-05-02T04:53:49.809Z,99.90
2019-05-02T04:56:18.959Z,99.90
2019-05-02T04:58:49.547Z,99.90
2019-05-02T05:01:21.037Z,99.90
2019-05-02T05:03:57.398Z,99.90
2019-05-02T05:06:19.097Z,99.90
2019-05-02T05:08:48.226Z,99.90
2019-05-02T05:11:21.296Z,99.90
2019-05-02T05:13:48.016Z,99.90
2019-05-02T05:16:18.567Z,99.90
2019-05-02T05:18:51.245Z,99.90
2019-05-02T05:21:18.027Z,99.90
2019-05-02T05:24:08.948Z,99.90
2019-05-02T05:26:42.917Z,99.90
2019-05-02T05:29:13.968Z,99.90
2019-05-02T05:31:40.697Z,99.90
2019-05-02T05:34:09.896Z,99.90
2019-05-02T05:36:38.965Z,99.90
2019-05-02T05:39:11.535Z,99.90
2019-05-02T05:41:42.686Z,99.90
2019-05-02T05:44:08.493Z,99.90
2019-05-02T05:46:38.738Z,99.90
2019-05-02T05:49:10.536Z,99.90
2019-05-02T05:51:38.369Z,99.90
2019-05-02T05:54:07.747Z,99.90
2019-05-02T05:56:41.888Z,99.90
2019-05-02T05:59:08.117Z,99.90
2019-05-02T06:01:38.394Z,99.90
2019-05-02T06:04:08.018Z,99.90
2019-05-02T06:06:37.756Z,99.90
2019-05-02T06:09:08.344Z,99.90
2019-05-02T06:11:37.081Z,99.90
2019-05-02T06:14:06.269Z,99.90
2019-05-02T06:16:35.444Z,99.90
2019-05-02T06:19:04.064Z,99.90
2019-05-02T06:21:32.630Z,99.90
2019-05-02T06:24:01.732Z,99.90
2019-05-02T06:26:30.346Z,99.90
2019-05-02T06:28:59.973Z,99.90
2019-05-02T06:31:28.725Z,99.90
2019-05-02T06:34:02.157Z,99.90
2019-05-02T06:36:31.922Z,99.90
2019-05-02T06:39:01.165Z,99.90
2019-05-02T06:41:30.304Z,99.90
2019-05-02T06:43:59.377Z,99.90
2019-05-02T06:46:29.557Z,99.90
2019-05-02T06:48:58.515Z,99.90
2019-05-02T06:51:27.442Z,99.90
2019-05-02T06:53:56.132Z,99.90
2019-05-02T06:56:24.712Z,99.90
2019-05-02T06:58:53.648Z,99.90
2019-05-02T07:01:22.982Z,99.90
2019-05-02T07:03:52.098Z,99.90
2019-05-02T07:06:21.044Z,99.90
2019-05-02T07:08:49.697Z,99.90
2019-05-02T07:11:18.649Z,99.90
2019-05-02T07:13:48.065Z,99.90
2019-05-02T07:16:38.872Z,99.90
2019-05-02T07:19:29.205Z,99.90
2019-05-02T07:21:58.427Z,99.90
2019-05-02T07:24:30.711Z,99.90
2019-05-02T07:27:01.955Z,99.90
2019-05-02T07:29:30.015Z,99.90
2019-05-02T07:31:58.901Z,99.90
2019-05-02T07:34:27.852Z,99.90
2019-05-02T07:36:56.737Z,99.90
2019-05-02T07:39:25.690Z,99.90
2019-05-02T07:41:54.966Z,99.90
2019-05-02T07:44:27.111Z,99.90
2019-05-02T07:46:56.903Z,99.90
2019-05-02T07:49:26.738Z,99.90
2019-05-02T07:51:57.732Z,99.90
2019-05-02T07:54:26.786Z,99.90
2019-05-02T07:56:56.045Z,99.90
2019-05-02T07:59:25.156Z,99.90
2019-05-02T08:01:54.109Z,99.90
2019-05-02T08:04:23.548Z,99.90
2019-05-02T08:06:52.426Z,99.90
2019-05-02T08:09:21.470Z,99.90
2019-05-02T08:11:50.885Z,99.90
2019-05-02T08:14:19.766Z,99.90
2019-05-02T08:16:49.145Z,99.90
2019-05-02T08:19:18.020Z,99.90
2019-05-02T08:21:46.962Z,99.90
2019-05-02T08:24:15.836Z,99.90
2019-05-02T08:27:19.296Z,99.90
2019-05-02T08:29:48.258Z,99.90
2019-05-02T08:32:17.135Z,99.90
2019-05-02T08:34:51.264Z,99.90
2019-05-02T08:37:16.667Z,99.90
2019-05-02T08:39:45.617Z,99.90
2019-05-02T08:42:15.093Z,99.90
2019-05-02T08:44:50.758Z,99.90
2019-05-02T08:47:19.126Z,99.90
2019-05-02T08:49:49.285Z,99.90
2019-05-02T08:52:16.346Z,99.90
2019-05-02T08:54:45.232Z,99.90
2019-05-02T08:57:14.304Z,99.90
2019-05-02T08:59:43.263Z,99.90
2019-05-02T09:02:12.213Z,99.90
2019-05-02T09:04:41.086Z,99.90
2019-05-02T09:07:10.084Z,99.90
2019-05-02T09:09:38.909Z,99.90
2019-05-02T09:12:12.350Z,99.90
2019-05-02T09:14:38.454Z,99.90
2019-05-02T09:17:13.479Z,99.90
2019-05-02T09:19:38.487Z,99.90
2019-05-02T09:22:12.101Z,99.90
2019-05-02T09:24:38.476Z,99.90
2019-05-02T09:27:07.430Z,99.90
2019-05-02T09:29:37.397Z,99.90
2019-05-02T09:32:06.950Z,99.90
2019-05-02T09:34:35.827Z,99.90
2019-05-02T09:37:04.798Z,99.90
2019-05-02T09:39:36.495Z,99.90
2019-05-02T09:42:06.781Z,99.90
2019-05-02T09:44:34.894Z,99.90
2019-05-02T09:47:04.344Z,99.90
2019-05-02T09:49:33.221Z,99.90
2019-05-02T09:52:03.388Z,99.90
2019-05-02T09:54:37.042Z,99.90
2019-05-02T09:57:03.683Z,99.90
2019-05-02T09:59:33.298Z,99.90
2019-05-02T10:02:05.184Z,99.90
2019-05-02T10:04:34.054Z,99.90
2019-05-02T10:07:03.078Z,99.90
2019-05-02T10:09:32.385Z,99.90
2019-05-02T10:12:02.009Z,99.90
2019-05-02T10:14:32.954Z,99.90
2019-05-02T10:17:05.100Z,99.90
2019-05-02T10:19:32.706Z,99.90
2019-05-02T10:22:02.016Z,99.90
2019-05-02T10:24:32.210Z,99.90
2019-05-02T10:27:04.033Z,99.90
2019-05-02T10:29:32.923Z,99.90
2019-05-02T10:32:02.177Z,99.90
2019-05-02T10:34:32.994Z,99.90
2019-05-02T10:37:03.107Z,99.90
2019-05-02T10:39:34.049Z,99.90
2019-05-02T10:42:03.589Z,99.90
2019-05-02T10:44:36.352Z,94.40
2019-05-02T10:47:03.187Z,96.60
2019-05-02T10:49:42.628Z,92.70
2019-05-02T10:52:12.198Z,92.00
2019-05-02T10:54:42.147Z,90.70
2019-05-02T10:57:12.609Z,90.10
2019-05-02T10:59:42.133Z,90.80
2019-05-02T11:02:29.065Z,88.70
2019-05-02T11:05:02.689Z,85.80
2019-05-02T11:07:32.635Z,85.00
2019-05-02T11:10:03.261Z,85.10
2019-05-02T11:13:01.896Z,83.60
2019-05-02T11:15:52.912Z,82.40
2019-05-02T11:18:39.436Z,77.60
2019-05-02T11:20:59.002Z,77.20
2019-05-02T11:23:26.516Z,77.70
2019-05-02T11:25:55.762Z,74.60
2019-05-02T11:28:24.710Z,74.00
2019-05-02T11:30:57.045Z,75.60
2019-05-02T11:33:24.285Z,75.10
2019-05-02T11:35:53.544Z,74.90
2019-05-02T11:38:40.525Z,72.70
2019-05-02T11:40:53.410Z,71.80
2019-05-02T11:43:22.430Z,69.80
2019-05-02T11:45:54.183Z,71.00
2019-05-02T11:48:22.593Z,72.80
2019-05-02T11:50:52.331Z,69.40
2019-05-02T11:53:24.969Z,68.70
2019-05-02T11:55:53.237Z,66.30
2019-05-02T11:58:22.971Z,64.80
2019-05-02T12:00:52.384Z,64.70
2019-05-02T12:03:42.287Z,63.60
2019-05-02T12:06:17.070Z,61.60
2019-05-02T12:08:45.022Z,58.80
2019-05-02T12:11:17.435Z,60.00
2019-05-02T12:13:47.385Z,59.20
2019-05-02T12:16:15.793Z,58.90
2019-05-02T12:18:44.716Z,56.70
2019-05-02T12:21:13.787Z,56.90
2019-05-02T12:23:42.666Z,57.10
2019-05-02T12:26:12.362Z,54.20
2019-05-02T12:28:42.913Z,56.80
2019-05-02T12:31:26.705Z,57.10
2019-05-02T12:33:55.840Z,55.40
2019-05-02T12:36:24.865Z,55.50
2019-05-02T12:38:53.755Z,54.70
2019-05-02T12:41:25.160Z,54.30
2019-05-02T12:43:53.264Z,54.60
2019-05-02T12:46:22.338Z,55.10
2019-05-02T12:48:51.955Z,54.20
2019-05-02T12:51:22.537Z,54.50
2019-05-02T12:53:52.809Z,53.90
2019-05-02T12:56:22.885Z,53.20
2019-05-02T12:58:52.972Z,54.20
2019-05-02T13:01:22.669Z,54.30
2019-05-02T13:04:05.079Z,53.10
2019-05-02T13:06:36.950Z,53.50
2019-05-02T13:09:12.743Z,54.10
2019-05-02T13:12:02.685Z,53.10
2019-05-02T13:14:32.204Z,52.80
2019-05-02T13:17:05.261Z,53.50
2019-05-02T13:19:40.602Z,53.60
2019-05-02T13:22:32.385Z,53.50
2019-05-02T13:25:06.460Z,53.40
2019-05-02T13:27:46.034Z,53.50
2019-05-02T13:30:12.430Z,52.70
2019-05-02T13:32:48.100Z,52.10
2019-05-02T13:35:39.296Z,53.00
2019-05-02T13:38:09.141Z,51.80
2019-05-02T13:40:44.232Z,52.70
2019-05-02T13:43:13.041Z,53.50
2019-05-02T13:45:49.180Z,52.80
2019-05-02T13:48:17.681Z,52.60
2019-05-02T13:50:46.220Z,53.10
2019-05-02T13:53:14.801Z,52.70
2019-05-02T13:55:53.021Z,51.90
2019-05-02T13:58:28.679Z,51.60
2019-05-02T14:00:52.868Z,52.40
2019-05-02T14:03:22.670Z,52.30
2019-05-02T14:05:53.699Z,53.20
2019-05-02T14:08:43.989Z,53.00
2019-05-02T14:11:31.720Z,53.10
2019-05-02T14:14:01.846Z,53.70
2019-05-02T14:16:32.086Z,53.10
2019-05-02T14:19:02.847Z,53.00
2019-05-02T14:21:32.206Z,53.90
2019-05-02T14:24:01.716Z,54.40
2019-05-02T14:26:31.143Z,55.10
2019-05-02T14:29:02.419Z,54.60
2019-05-02T14:31:32.320Z,54.30
2019-05-02T14:34:19.258Z,54.50
2019-05-02T14:36:47.794Z,55.20
2019-05-02T14:39:16.381Z,53.30
2019-05-02T14:41:44.827Z,53.50
2019-05-02T14:44:17.865Z,53.50
2019-05-02T14:46:44.013Z,54.20
2019-05-02T14:49:16.702Z,53.80
2019-05-02T14:51:42.749Z,54.70
2019-05-02T14:54:12.068Z,54.60
2019-05-02T14:57:03.273Z,55.10
2019-05-02T14:59:32.329Z,55.10
2019-05-02T15:02:07.473Z,55.10
2019-05-02T15:04:41.485Z,55.00
2019-05-02T15:07:05.418Z,54.70
2019-05-02T15:09:36.055Z,55.00
2019-05-02T15:12:13.557Z,55.60
2019-05-02T15:14:35.361Z,54.80
2019-05-02T15:17:05.017Z,54.10
2019-05-02T15:19:33.528Z,54.10
2019-05-02T15:22:02.353Z,54.60
2019-05-02T15:24:33.184Z,56.20
2019-05-02T15:27:03.886Z,55.80
2019-05-02T15:29:32.111Z,55.50
2019-05-02T15:32:18.986Z,55.90
2019-05-02T15:35:26.819Z,55.80
2019-05-02T15:37:56.577Z,56.20
2019-05-02T15:42:56.812Z,55.70
2019-05-02T15:45:26.682Z,55.60
2019-05-02T15:47:55.101Z,54.90
2019-05-02T15:50:25.543Z,55.40
2019-05-02T15:53:09.768Z,55.60
2019-05-02T15:55:39.629Z,55.10
2019-05-02T15:58:07.709Z,55.00
2019-05-02T16:00:39.605Z,55.00
2019-05-02T16:03:08.466Z,55.20
2019-05-02T16:05:41.231Z,56.00
2019-05-02T16:08:08.780Z,55.90
2019-05-02T16:10:38.555Z,56.20
2019-05-02T16:13:12.360Z,56.20
2019-05-02T16:15:38.827Z,56.20
2019-05-02T16:18:07.275Z,56.70
2019-05-02T16:21:05.481Z,56.50
2019-05-02T16:23:33.004Z,56.70
2019-05-02T16:26:02.064Z,57.90
2019-05-02T16:28:29.261Z,57.80
2019-05-02T16:31:01.506Z,57.60
2019-05-02T16:33:31.797Z,57.60
2019-05-02T16:36:00.391Z,57.70
2019-05-02T16:38:32.192Z,57.70
2019-05-02T16:41:04.066Z,58.20
2019-05-02T16:43:32.354Z,58.20
2019-05-02T16:46:01.814Z,57.50
2019-05-02T16:48:37.468Z,57.50
2019-05-02T16:51:02.187Z,57.60
2019-05-02T16:53:33.335Z,58.60
2019-05-02T16:56:05.562Z,57.40
2019-05-02T16:58:33.550Z,57.40
2019-05-02T17:01:03.264Z,56.80
2019-05-02T17:03:31.778Z,56.60
2019-05-02T17:06:01.674Z,56.30
2019-05-02T17:08:57.394Z,56.20
2019-05-02T17:11:27.844Z,56.30
2019-05-02T17:13:55.400Z,56.40
2019-05-02T17:16:23.958Z,56.80
2019-05-02T17:18:56.342Z,57.00
2019-05-02T17:21:26.827Z,57.90
2019-05-02T17:23:52.826Z,57.70
2019-05-02T17:26:22.839Z,58.60
2019-05-02T17:28:52.105Z,58.50
2019-05-02T17:31:22.676Z,58.30
2019-05-02T17:33:52.922Z,59.10
2019-05-02T17:36:28.317Z,59.20
2019-05-02T17:38:54.263Z,58.80
2019-05-02T17:41:22.663Z,58.90
2019-05-02T17:43:51.277Z,59.20
2019-05-02T17:46:23.682Z,58.80
2019-05-02T17:48:52.708Z,58.90
2019-05-02T17:52:05.423Z,58.90
2019-05-02T17:54:26.700Z,58.90
2019-05-02T17:56:57.409Z,59.00
2019-05-02T17:59:28.222Z,59.40
2019-05-02T18:01:55.714Z,59.50
2019-05-02T18:04:24.692Z,59.90
2019-05-02T18:06:55.153Z,60.40
2019-05-02T18:09:26.248Z,60.40
2019-05-02T18:11:53.718Z,60.50
2019-05-02T18:14:24.060Z,60.80
2019-05-02T18:16:55.562Z,60.80
2019-05-02T18:19:24.612Z,61.00
2019-05-02T18:21:53.008Z,61.20
2019-05-02T18:24:22.266Z,61.60
2019-05-02T18:26:51.721Z,62.20
2019-05-02T18:29:20.808Z,61.90
2019-05-02T18:31:49.273Z,61.70
2019-05-02T18:34:21.188Z,62.30
2019-05-02T18:36:47.985Z,61.90
2019-05-02T18:39:16.984Z,62.10
2019-05-02T18:41:46.465Z,62.00
2019-05-02T18:44:17.100Z,62.70
2019-05-02T18:46:45.777Z,63.00
2019-05-02T18:49:17.100Z,63.20
2019-05-02T18:51:48.339Z,63.50
2019-05-02T18:54:14.807Z,63.90
2019-05-02T18:56:50.054Z,64.50
2019-05-02T18:59:14.267Z,64.60
2019-05-02T19:01:47.454Z,66.10
2019-05-02T19:11:31.415Z,68.40
2019-05-02T19:13:58.811Z,67.90
2019-05-02T19:16:29.385Z,68.40
2019-05-02T19:18:59.187Z,69.40
2019-05-02T19:21:32.032Z,70.70
2019-05-02T19:24:02.281Z,70.30
2019-05-02T19:26:32.685Z,70.30
2019-05-02T19:29:39.795Z,70.50
2019-05-02T19:32:12.306Z,70.80
2019-05-02T19:34:42.694Z,71.10
2019-05-02T19:37:12.443Z,71.30
2019-05-02T19:39:46.314Z,71.30
2019-05-02T19:42:16.996Z,72.30
2019-05-02T19:44:47.434Z,74.50
2019-05-02T19:47:17.691Z,77.40
2019-05-02T19:49:52.299Z,77.10
2019-05-02T19:52:22.117Z,79.10
2019-05-02T19:54:51.908Z,78.90
2019-05-02T19:57:24.846Z,78.50
2019-05-02T19:59:57.191Z,80.40
2019-05-02T20:02:25.910Z,81.70
2019-05-02T20:04:56.141Z,82.60
2019-05-02T20:07:25.776Z,81.40
2019-05-02T20:09:55.490Z,81.10
2019-05-02T20:12:27.847Z,83.60
2019-05-02T20:14:57.720Z,83.20
2019-05-02T20:17:27.561Z,83.30
2019-05-02T20:20:05.428Z,84.90
2019-05-02T20:22:36.352Z,84.40
2019-05-02T20:25:06.052Z,86.30
2019-05-02T20:27:38.009Z,85.90
2019-05-02T20:30:08.583Z,87.30
2019-05-02T20:32:42.632Z,88.90
2019-05-02T20:35:12.582Z,89.00
2019-05-02T20:37:43.057Z,90.10
2019-05-02T20:40:28.674Z,90.10
2019-05-02T20:42:58.745Z,90.90
2019-05-02T20:45:28.758Z,91.00
2019-05-02T20:47:58.799Z,92.10
2019-05-02T20:50:28.729Z,91.90
2019-05-02T20:52:58.754Z,92.10
2019-05-02T20:55:28.741Z,93.30
2019-05-02T20:57:57.490Z,93.60
2019-05-02T21:00:28.556Z,93.40
2019-05-02T21:02:57.152Z,93.40
2019-05-02T21:05:32.104Z,93.60
2019-05-02T21:08:21.947Z,94.50
2019-05-02T21:10:52.263Z,95.80
2019-05-02T21:13:22.078Z,96.50
2019-05-02T21:15:52.303Z,96.60
2019-05-02T21:18:22.098Z,97.90
2019-05-02T21:20:52.574Z,98.80
2019-05-02T21:23:21.869Z,99.60
2019-05-02T21:25:52.471Z,99.90
2019-05-02T21:28:22.703Z,99.90
2019-05-02T21:30:52.347Z,99.90
2019-05-02T21:33:37.873Z,99.90
2019-05-02T21:36:07.939Z,99.90
2019-05-02T21:38:37.353Z,99.90
2019-05-02T21:41:10.088Z,99.90
2019-05-02T21:43:38.615Z,99.90
2019-05-02T21:46:07.589Z,99.90
2019-05-02T21:48:36.156Z,99.90
2019-05-02T21:51:26.801Z,99.90
2019-05-02T21:54:06.040Z,99.90
2019-05-02T21:56:52.085Z,99.90
2019-05-02T21:59:22.364Z,99.90
2019-05-02T22:01:52.385Z,99.90
2019-05-02T22:04:22.442Z,99.90
2019-05-02T22:06:52.241Z,99.90
2019-05-02T22:09:22.972Z,99.90
2019-05-02T22:11:52.035Z,99.90
2019-05-02T22:14:22.336Z,99.90
2019-05-02T22:16:52.821Z,99.90
2019-05-02T22:19:21.288Z,99.90
2019-05-02T22:21:49.700Z,99.90
2019-05-02T22:24:18.187Z,99.90
2019-05-02T22:26:47.528Z,99.90
2019-05-02T22:29:16.028Z,99.90
2019-05-02T22:31:44.896Z,99.90
2019-05-02T22:34:13.387Z,99.90
2019-05-02T22:36:42.094Z,99.90
2019-05-02T22:39:31.660Z,99.90
2019-05-02T22:42:04.219Z,99.90
2019-05-02T22:44:32.477Z,99.90
2019-05-02T22:47:01.089Z,99.90
2019-05-02T22:49:31.691Z,99.90
2019-05-02T22:52:00.069Z,99.90
2019-05-02T22:54:31.574Z,99.90
2019-05-02T22:56:59.217Z,99.90
2019-05-02T22:59:28.423Z,99.90
2019-05-02T23:01:57.648Z,99.90
2019-05-02T23:04:26.145Z,99.90
2019-05-02T23:06:54.625Z,99.90
2019-05-02T23:09:23.037Z,99.90
2019-05-02T23:11:51.989Z,99.90
2019-05-02T23:14:22.155Z,99.90
2019-05-02T23:16:52.310Z,99.90
2019-05-02T23:19:23.035Z,99.90
2019-05-02T23:21:52.650Z,99.90
2019-05-02T23:24:42.511Z,99.90
2019-05-02T23:27:39.485Z,99.90
2019-05-02T23:30:11.558Z,99.90
2019-05-02T23:32:42.358Z,99.90
2019-05-02T23:35:11.073Z,99.90
2019-05-02T23:37:39.545Z,99.90
2019-05-02T23:40:08.180Z,99.90
2019-05-02T23:42:36.759Z,99.90
2019-05-02T23:45:05.531Z,99.90
2019-05-02T23:47:34.020Z,99.90
2019-05-02T23:50:02.820Z,99.90
2019-05-02T23:52:31.673Z,99.90
2019-05-02T23:55:02.809Z,99.90
2019-05-02T23:57:32.450Z,99.90
